sensor_id;sensor_type;location;lat;lon;timestamp;temperature;humidity
30148;DHT22;16960;49.404;8.248;2022-11-20T00:01:07;20.50;45.80
30148;DHT22;16960;49.404;8.248;2022-11-20T00:03:34;20.50;45.90
30148;DHT22;16960;49.404;8.248;2022-11-20T00:06:04;20.40;45.70
30148;DHT22;16960;49.404;8.248;2022-11-20T00:08:31;20.40;45.80
30148;DHT22;16960;49.404;8.248;2022-11-20T00:11:03;20.40;45.90
30148;DHT22;16960;49.404;8.248;2022-11-20T00:13:29;20.40;45.90
30148;DHT22;16960;49.404;8.248;2022-11-20T00:15:57;20.40;45.90
30148;DHT22;16960;49.404;8.248;2022-11-20T00:18:25;20.40;45.90
30148;DHT22;16960;49.404;8.248;2022-11-20T00:20:52;20.40;46.00
30148;DHT22;16960;49.404;8.248;2022-11-20T00:23:20;20.40;46.00
30148;DHT22;16960;49.404;8.248;2022-11-20T00:25:47;20.40;46.00
30148;DHT22;16960;49.404;8.248;2022-11-20T00:28:14;20.30;46.00
30148;DHT22;16960;49.404;8.248;2022-11-20T00:30:40;20.40;46.00
30148;DHT22;16960;49.404;8.248;2022-11-20T00:33:07;20.30;46.10
30148;DHT22;16960;49.404;8.248;2022-11-20T00:35:34;20.30;46.10
30148;DHT22;16960;49.404;8.248;2022-11-20T00:38:01;20.30;46.10
30148;DHT22;16960;49.404;8.248;2022-11-20T00:40:30;20.30;46.10
30148;DHT22;16960;49.404;8.248;2022-11-20T00:42:56;20.30;46.20
30148;DHT22;16960;49.404;8.248;2022-11-20T00:45:23;20.30;46.20
30148;DHT22;16960;49.404;8.248;2022-11-20T00:47:50;20.30;46.30
30148;DHT22;16960;49.404;8.248;2022-11-20T00:50:17;20.30;46.30
30148;DHT22;16960;49.404;8.248;2022-11-20T00:52:44;20.30;46.30
30148;DHT22;16960;49.404;8.248;2022-11-20T00:55:11;20.30;46.30
30148;DHT22;16960;49.404;8.248;2022-11-20T00:57:39;20.30;46.30
30148;DHT22;16960;49.404;8.248;2022-11-20T01:00:08;20.30;46.30
30148;DHT22;16960;49.404;8.248;2022-11-20T01:02:35;20.30;46.30
30148;DHT22;16960;49.404;8.248;2022-11-20T01:05:02;20.30;46.30
30148;DHT22;16960;49.404;8.248;2022-11-20T01:07:29;20.30;46.30
30148;DHT22;16960;49.404;8.248;2022-11-20T01:09:56;20.30;46.20
30148;DHT22;16960;49.404;8.248;2022-11-20T01:12:23;20.30;46.20
30148;DHT22;16960;49.404;8.248;2022-11-20T01:14:51;20.30;46.20
30148;DHT22;16960;49.404;8.248;2022-11-20T01:17:18;20.30;46.20
30148;DHT22;16960;49.404;8.248;2022-11-20T01:19:48;20.30;46.20
30148;DHT22;16960;49.404;8.248;2022-11-20T01:22:15;20.30;46.10
30148;DHT22;16960;49.404;8.248;2022-11-20T01:24:42;20.30;46.10
30148;DHT22;16960;49.404;8.248;2022-11-20T01:27:09;20.30;46.10
30148;DHT22;16960;49.404;8.248;2022-11-20T01:29:36;20.30;46.20
30148;DHT22;16960;49.404;8.248;2022-11-20T01:32:04;20.30;46.20
30148;DHT22;16960;49.404;8.248;2022-11-20T01:34:31;20.30;46.10
30148;DHT22;16960;49.404;8.248;2022-11-20T01:36:58;20.30;46.10
30148;DHT22;16960;49.404;8.248;2022-11-20T01:39:26;20.30;46.00
30148;DHT22;16960;49.404;8.248;2022-11-20T01:41:55;20.30;46.00
30148;DHT22;16960;49.404;8.248;2022-11-20T01:44:50;20.30;46.00
30148;DHT22;16960;49.404;8.248;2022-11-20T01:47:22;20.30;45.90
30148;DHT22;16960;49.404;8.248;2022-11-20T01:49:54;20.30;46.00
30148;DHT22;16960;49.404;8.248;2022-11-20T01:52:24;20.30;45.90
30148;DHT22;16960;49.404;8.248;2022-11-20T01:54:56;20.30;45.80
30148;DHT22;16960;49.404;8.248;2022-11-20T01:57:25;20.30;45.80
30148;DHT22;16960;49.404;8.248;2022-11-20T01:59:59;20.30;45.80
30148;DHT22;16960;49.404;8.248;2022-11-20T02:02:28;20.30;45.80
30148;DHT22;16960;49.404;8.248;2022-11-20T02:04:58;20.30;45.80
30148;DHT22;16960;49.404;8.248;2022-11-20T02:07:27;20.30;45.80
30148;DHT22;16960;49.404;8.248;2022-11-20T02:09:55;20.30;45.80
30148;DHT22;16960;49.404;8.248;2022-11-20T02:12:22;20.30;45.90
30148;DHT22;16960;49.404;8.248;2022-11-20T02:15:06;20.30;45.80
30148;DHT22;16960;49.404;8.248;2022-11-20T02:17:35;20.20;45.80
30148;DHT22;16960;49.404;8.248;2022-11-20T02:20:02;20.30;45.90
30148;DHT22;16960;49.404;8.248;2022-11-20T02:22:34;20.20;45.80
30148;DHT22;16960;49.404;8.248;2022-11-20T02:25:05;20.20;45.90
30148;DHT22;16960;49.404;8.248;2022-11-20T02:27:34;20.20;45.90
30148;DHT22;16960;49.404;8.248;2022-11-20T02:30:04;20.20;45.90
30148;DHT22;16960;49.404;8.248;2022-11-20T02:32:35;20.20;46.00
30148;DHT22;16960;49.404;8.248;2022-11-20T02:35:07;20.20;46.00
30148;DHT22;16960;49.404;8.248;2022-11-20T02:37:36;20.20;46.00
30148;DHT22;16960;49.404;8.248;2022-11-20T02:40:06;20.20;46.00
30148;DHT22;16960;49.404;8.248;2022-11-20T02:42:34;20.20;46.00
30148;DHT22;16960;49.404;8.248;2022-11-20T02:45:01;20.20;46.10
30148;DHT22;16960;49.404;8.248;2022-11-20T02:47:27;20.20;46.10
30148;DHT22;16960;49.404;8.248;2022-11-20T02:49:54;20.20;46.10
30148;DHT22;16960;49.404;8.248;2022-11-20T02:52:21;20.20;46.20
30148;DHT22;16960;49.404;8.248;2022-11-20T02:54:48;20.20;46.20
30148;DHT22;16960;49.404;8.248;2022-11-20T02:57:17;20.20;46.10
30148;DHT22;16960;49.404;8.248;2022-11-20T02:59:44;20.20;46.10
30148;DHT22;16960;49.404;8.248;2022-11-20T03:02:10;20.20;46.00
30148;DHT22;16960;49.404;8.248;2022-11-20T03:04:37;20.20;46.00
30148;DHT22;16960;49.404;8.248;2022-11-20T03:07:04;20.20;46.00
30148;DHT22;16960;49.404;8.248;2022-11-20T03:09:31;20.20;46.00
30148;DHT22;16960;49.404;8.248;2022-11-20T03:11:58;20.20;46.00
30148;DHT22;16960;49.404;8.248;2022-11-20T03:14:26;20.10;46.00
30148;DHT22;16960;49.404;8.248;2022-11-20T03:16:53;20.20;46.00
30148;DHT22;16960;49.404;8.248;2022-11-20T03:19:20;20.10;46.00
30148;DHT22;16960;49.404;8.248;2022-11-20T03:21:47;20.10;46.00
30148;DHT22;16960;49.404;8.248;2022-11-20T03:24:14;20.10;46.00
30148;DHT22;16960;49.404;8.248;2022-11-20T03:26:41;20.10;46.00
30148;DHT22;16960;49.404;8.248;2022-11-20T03:29:08;20.10;46.00
30148;DHT22;16960;49.404;8.248;2022-11-20T03:31:38;20.10;46.00
30148;DHT22;16960;49.404;8.248;2022-11-20T03:34:07;20.10;46.00
30148;DHT22;16960;49.404;8.248;2022-11-20T03:36:34;20.10;46.00
30148;DHT22;16960;49.404;8.248;2022-11-20T03:39:01;20.10;46.00
30148;DHT22;16960;49.404;8.248;2022-11-20T03:41:30;20.10;46.00
30148;DHT22;16960;49.404;8.248;2022-11-20T03:44:00;20.10;46.00
30148;DHT22;16960;49.404;8.248;2022-11-20T03:46:27;20.10;46.00
30148;DHT22;16960;49.404;8.248;2022-11-20T03:48:56;20.10;46.00
30148;DHT22;16960;49.404;8.248;2022-11-20T03:51:25;20.10;46.10
30148;DHT22;16960;49.404;8.248;2022-11-20T03:53:54;20.10;46.00
30148;DHT22;16960;49.404;8.248;2022-11-20T03:56:23;20.10;46.10
30148;DHT22;16960;49.404;8.248;2022-11-20T03:58:51;20.10;46.10
30148;DHT22;16960;49.404;8.248;2022-11-20T04:01:19;20.10;46.10
30148;DHT22;16960;49.404;8.248;2022-11-20T04:03:46;20.10;46.10
30148;DHT22;16960;49.404;8.248;2022-11-20T04:06:15;20.10;46.00
30148;DHT22;16960;49.404;8.248;2022-11-20T04:08:42;20.10;46.00
30148;DHT22;16960;49.404;8.248;2022-11-20T04:11:11;20.10;46.10
30148;DHT22;16960;49.404;8.248;2022-11-20T04:13:38;20.10;46.00
30148;DHT22;16960;49.404;8.248;2022-11-20T04:16:06;20.10;46.10
30148;DHT22;16960;49.404;8.248;2022-11-20T04:18:33;20.10;46.10
30148;DHT22;16960;49.404;8.248;2022-11-20T04:21:00;20.10;46.40
30148;DHT22;16960;49.404;8.248;2022-11-20T04:23:29;20.10;46.00
30148;DHT22;16960;49.404;8.248;2022-11-20T04:26:01;20.10;46.10
30148;DHT22;16960;49.404;8.248;2022-11-20T04:28:28;20.10;46.00
30148;DHT22;16960;49.404;8.248;2022-11-20T04:31:02;20.10;46.00
30148;DHT22;16960;49.404;8.248;2022-11-20T04:33:29;20.10;46.00
30148;DHT22;16960;49.404;8.248;2022-11-20T04:36:00;20.10;46.00
30148;DHT22;16960;49.404;8.248;2022-11-20T04:38:28;20.10;46.00
30148;DHT22;16960;49.404;8.248;2022-11-20T04:40:57;20.10;46.00
30148;DHT22;16960;49.404;8.248;2022-11-20T04:43:24;20.00;45.90
30148;DHT22;16960;49.404;8.248;2022-11-20T04:45:51;20.10;46.00
30148;DHT22;16960;49.404;8.248;2022-11-20T04:48:18;20.10;46.00
30148;DHT22;16960;49.404;8.248;2022-11-20T04:50:45;20.00;45.90
30148;DHT22;16960;49.404;8.248;2022-11-20T04:53:12;20.00;45.90
30148;DHT22;16960;49.404;8.248;2022-11-20T04:55:40;20.00;45.90
30148;DHT22;16960;49.404;8.248;2022-11-20T04:58:07;20.00;45.90
30148;DHT22;16960;49.404;8.248;2022-11-20T05:00:34;20.10;46.00
30148;DHT22;16960;49.404;8.248;2022-11-20T05:03:01;20.00;45.90
30148;DHT22;16960;49.404;8.248;2022-11-20T05:05:28;20.10;46.00
30148;DHT22;16960;49.404;8.248;2022-11-20T05:07:56;20.10;45.90
30148;DHT22;16960;49.404;8.248;2022-11-20T05:10:23;20.10;45.90
30148;DHT22;16960;49.404;8.248;2022-11-20T05:12:51;20.10;45.90
30148;DHT22;16960;49.404;8.248;2022-11-20T05:15:18;20.00;45.80
30148;DHT22;16960;49.404;8.248;2022-11-20T05:17:47;20.00;45.70
30148;DHT22;16960;49.404;8.248;2022-11-20T05:20:14;20.00;45.70
30148;DHT22;16960;49.404;8.248;2022-11-20T05:22:41;20.00;45.70
30148;DHT22;16960;49.404;8.248;2022-11-20T05:25:09;20.10;45.80
30148;DHT22;16960;49.404;8.248;2022-11-20T05:27:36;20.10;45.80
30148;DHT22;16960;49.404;8.248;2022-11-20T05:30:05;20.00;45.70
30148;DHT22;16960;49.404;8.248;2022-11-20T05:32:32;20.10;45.80
30148;DHT22;16960;49.404;8.248;2022-11-20T05:34:59;20.00;45.70
30148;DHT22;16960;49.404;8.248;2022-11-20T05:37:26;20.00;45.80
30148;DHT22;16960;49.404;8.248;2022-11-20T05:39:53;20.00;45.70
30148;DHT22;16960;49.404;8.248;2022-11-20T05:42:20;20.00;45.70
30148;DHT22;16960;49.404;8.248;2022-11-20T05:44:59;20.00;45.70
30148;DHT22;16960;49.404;8.248;2022-11-20T05:47:31;20.00;45.70
30148;DHT22;16960;49.404;8.248;2022-11-20T05:49:58;20.00;45.80
30148;DHT22;16960;49.404;8.248;2022-11-20T05:52:27;20.00;45.70
30148;DHT22;16960;49.404;8.248;2022-11-20T05:54:54;20.00;45.70
30148;DHT22;16960;49.404;8.248;2022-11-20T05:57:21;20.00;45.70
30148;DHT22;16960;49.404;8.248;2022-11-20T05:59:48;20.00;46.40
30148;DHT22;16960;49.404;8.248;2022-11-20T06:02:15;20.00;45.70
30148;DHT22;16960;49.404;8.248;2022-11-20T06:04:43;20.00;45.70
30148;DHT22;16960;49.404;8.248;2022-11-20T06:07:10;20.00;45.70
30148;DHT22;16960;49.404;8.248;2022-11-20T06:09:37;20.00;45.70
30148;DHT22;16960;49.404;8.248;2022-11-20T06:12:04;20.00;45.70
30148;DHT22;16960;49.404;8.248;2022-11-20T06:14:32;20.00;45.60
30148;DHT22;16960;49.404;8.248;2022-11-20T06:16:59;20.10;45.60
30148;DHT22;16960;49.404;8.248;2022-11-20T06:19:26;20.10;45.60
30148;DHT22;16960;49.404;8.248;2022-11-20T06:21:54;20.20;45.50
30148;DHT22;16960;49.404;8.248;2022-11-20T06:24:22;20.20;45.40
30148;DHT22;16960;49.404;8.248;2022-11-20T06:26:50;20.20;45.30
30148;DHT22;16960;49.404;8.248;2022-11-20T06:29:17;20.30;45.40
30148;DHT22;16960;49.404;8.248;2022-11-20T06:31:44;20.30;45.30
30148;DHT22;16960;49.404;8.248;2022-11-20T06:34:11;20.30;45.30
30148;DHT22;16960;49.404;8.248;2022-11-20T06:36:38;20.30;45.30
30148;DHT22;16960;49.404;8.248;2022-11-20T06:39:06;20.40;45.20
30148;DHT22;16960;49.404;8.248;2022-11-20T06:41:33;20.40;45.20
30148;DHT22;16960;49.404;8.248;2022-11-20T06:44:00;20.40;45.10
30148;DHT22;16960;49.404;8.248;2022-11-20T06:46:27;20.40;45.10
30148;DHT22;16960;49.404;8.248;2022-11-20T06:48:54;20.40;45.10
30148;DHT22;16960;49.404;8.248;2022-11-20T06:51:21;20.50;45.30
30148;DHT22;16960;49.404;8.248;2022-11-20T06:53:48;20.50;45.30
30148;DHT22;16960;49.404;8.248;2022-11-20T06:56:17;20.50;45.30
30148;DHT22;16960;49.404;8.248;2022-11-20T06:58:44;20.50;45.30
30148;DHT22;16960;49.404;8.248;2022-11-20T07:01:12;20.50;45.30
30148;DHT22;16960;49.404;8.248;2022-11-20T07:03:39;20.50;45.30
30148;DHT22;16960;49.404;8.248;2022-11-20T07:06:07;20.50;45.30
30148;DHT22;16960;49.404;8.248;2022-11-20T07:08:34;20.60;45.30
30148;DHT22;16960;49.404;8.248;2022-11-20T07:11:03;20.60;45.20
30148;DHT22;16960;49.404;8.248;2022-11-20T07:13:32;20.60;45.20
30148;DHT22;16960;49.404;8.248;2022-11-20T07:16:00;20.60;45.10
30148;DHT22;16960;49.404;8.248;2022-11-20T07:18:27;20.60;45.10
30148;DHT22;16960;49.404;8.248;2022-11-20T07:20:54;20.70;45.10
30148;DHT22;16960;49.404;8.248;2022-11-20T07:23:21;20.70;45.10
30148;DHT22;16960;49.404;8.248;2022-11-20T07:25:48;20.70;45.10
30148;DHT22;16960;49.404;8.248;2022-11-20T07:28:15;20.60;45.00
30148;DHT22;16960;49.404;8.248;2022-11-20T07:30:49;20.60;45.00
30148;DHT22;16960;49.404;8.248;2022-11-20T07:33:16;20.70;45.10
30148;DHT22;16960;49.404;8.248;2022-11-20T07:35:43;20.70;45.20
30148;DHT22;16960;49.404;8.248;2022-11-20T07:38:10;20.70;45.20
30148;DHT22;16960;49.404;8.248;2022-11-20T07:40:37;20.70;45.10
30148;DHT22;16960;49.404;8.248;2022-11-20T07:43:04;20.70;45.20
30148;DHT22;16960;49.404;8.248;2022-11-20T07:45:31;20.80;45.10
30148;DHT22;16960;49.404;8.248;2022-11-20T07:47:59;20.70;45.10
30148;DHT22;16960;49.404;8.248;2022-11-20T07:50:26;20.80;45.10
30148;DHT22;16960;49.404;8.248;2022-11-20T07:53:00;20.80;45.00
30148;DHT22;16960;49.404;8.248;2022-11-20T07:55:28;20.80;45.00
30148;DHT22;16960;49.404;8.248;2022-11-20T07:57:55;20.80;45.00
30148;DHT22;16960;49.404;8.248;2022-11-20T08:00:22;20.80;45.00
30148;DHT22;16960;49.404;8.248;2022-11-20T08:02:49;20.80;44.90
30148;DHT22;16960;49.404;8.248;2022-11-20T08:05:18;20.80;44.80
30148;DHT22;16960;49.404;8.248;2022-11-20T08:07:45;20.80;44.90
30148;DHT22;16960;49.404;8.248;2022-11-20T08:10:13;20.90;45.10
30148;DHT22;16960;49.404;8.248;2022-11-20T08:12:44;20.90;45.80
30148;DHT22;16960;49.404;8.248;2022-11-20T08:15:29;20.90;45.10
30148;DHT22;16960;49.404;8.248;2022-11-20T08:18:03;20.90;45.30
30148;DHT22;16960;49.404;8.248;2022-11-20T08:20:31;20.90;45.40
30148;DHT22;16960;49.404;8.248;2022-11-20T08:22:59;20.90;45.30
30148;DHT22;16960;49.404;8.248;2022-11-20T08:25:27;20.90;45.30
30148;DHT22;16960;49.404;8.248;2022-11-20T08:27:56;20.90;45.30
30148;DHT22;16960;49.404;8.248;2022-11-20T08:30:23;20.90;46.00
30148;DHT22;16960;49.404;8.248;2022-11-20T08:32:50;21.00;45.20
30148;DHT22;16960;49.404;8.248;2022-11-20T08:35:17;21.00;45.20
30148;DHT22;16960;49.404;8.248;2022-11-20T08:37:47;21.00;45.80
30148;DHT22;16960;49.404;8.248;2022-11-20T08:40:14;21.10;45.10
30148;DHT22;16960;49.404;8.248;2022-11-20T08:42:46;21.10;45.20
30148;DHT22;16960;49.404;8.248;2022-11-20T08:45:14;21.10;45.20
30148;DHT22;16960;49.404;8.248;2022-11-20T08:47:41;21.10;45.90
30148;DHT22;16960;49.404;8.248;2022-11-20T08:50:08;21.10;45.00
30148;DHT22;16960;49.404;8.248;2022-11-20T08:52:35;21.10;45.00
30148;DHT22;16960;49.404;8.248;2022-11-20T08:55:05;21.10;44.90
30148;DHT22;16960;49.404;8.248;2022-11-20T08:57:33;21.10;44.80
30148;DHT22;16960;49.404;8.248;2022-11-20T09:00:00;21.10;44.70
30148;DHT22;16960;49.404;8.248;2022-11-20T09:02:27;21.10;44.60
30148;DHT22;16960;49.404;8.248;2022-11-20T09:04:54;21.20;44.50
30148;DHT22;16960;49.404;8.248;2022-11-20T09:07:21;21.20;44.50
30148;DHT22;16960;49.404;8.248;2022-11-20T09:09:48;21.20;44.30
30148;DHT22;16960;49.404;8.248;2022-11-20T09:12:16;21.20;44.30
30148;DHT22;16960;49.404;8.248;2022-11-20T09:14:43;21.20;44.20
30148;DHT22;16960;49.404;8.248;2022-11-20T09:17:10;21.20;44.10
30148;DHT22;16960;49.404;8.248;2022-11-20T09:19:39;21.20;44.00
30148;DHT22;16960;49.404;8.248;2022-11-20T09:22:06;21.20;44.00
30148;DHT22;16960;49.404;8.248;2022-11-20T09:24:33;21.20;44.00
30148;DHT22;16960;49.404;8.248;2022-11-20T09:27:04;21.20;44.00
30148;DHT22;16960;49.404;8.248;2022-11-20T09:29:32;21.30;43.90
30148;DHT22;16960;49.404;8.248;2022-11-20T09:31:59;21.30;43.80
30148;DHT22;16960;49.404;8.248;2022-11-20T09:34:26;21.30;43.70
30148;DHT22;16960;49.404;8.248;2022-11-20T09:36:53;21.40;43.70
30148;DHT22;16960;49.404;8.248;2022-11-20T09:39:20;21.40;43.60
30148;DHT22;16960;49.404;8.248;2022-11-20T09:42:02;21.30;43.70
30148;DHT22;16960;49.404;8.248;2022-11-20T09:44:48;21.40;43.70
30148;DHT22;16960;49.404;8.248;2022-11-20T09:47:23;21.40;43.60
30148;DHT22;16960;49.404;8.248;2022-11-20T09:50:02;21.40;43.50
30148;DHT22;16960;49.404;8.248;2022-11-20T09:52:40;21.40;43.50
30148;DHT22;16960;49.404;8.248;2022-11-20T09:55:10;21.50;43.70
30148;DHT22;16960;49.404;8.248;2022-11-20T09:57:40;21.50;43.80
30148;DHT22;16960;49.404;8.248;2022-11-20T10:00:13;21.50;43.90
30148;DHT22;16960;49.404;8.248;2022-11-20T10:02:44;21.50;43.60
30148;DHT22;16960;49.404;8.248;2022-11-20T10:05:18;21.50;43.80
30148;DHT22;16960;49.404;8.248;2022-11-20T10:07:51;21.50;43.70
30148;DHT22;16960;49.404;8.248;2022-11-20T10:10:29;21.60;43.40
30148;DHT22;16960;49.404;8.248;2022-11-20T10:13:08;21.60;43.20
30148;DHT22;16960;49.404;8.248;2022-11-20T10:15:46;21.60;43.10
30148;DHT22;16960;49.404;8.248;2022-11-20T10:18:30;21.60;42.90
30148;DHT22;16960;49.404;8.248;2022-11-20T10:21:08;21.60;42.80
30148;DHT22;16960;49.404;8.248;2022-11-20T10:24:00;21.60;42.70
30148;DHT22;16960;49.404;8.248;2022-11-20T10:26:38;21.50;42.70
30148;DHT22;16960;49.404;8.248;2022-11-20T10:29:12;21.50;42.70
30148;DHT22;16960;49.404;8.248;2022-11-20T10:31:43;21.50;42.50
30148;DHT22;16960;49.404;8.248;2022-11-20T10:34:19;21.50;42.40
30148;DHT22;16960;49.404;8.248;2022-11-20T10:36:51;21.50;42.40
30148;DHT22;16960;49.404;8.248;2022-11-20T10:39:25;21.50;42.40
30148;DHT22;16960;49.404;8.248;2022-11-20T10:41:56;21.50;42.40
30148;DHT22;16960;49.404;8.248;2022-11-20T10:44:27;21.50;42.40
30148;DHT22;16960;49.404;8.248;2022-11-20T10:47:15;21.50;42.40
30148;DHT22;16960;49.404;8.248;2022-11-20T10:49:43;21.50;42.40
30148;DHT22;16960;49.404;8.248;2022-11-20T10:52:16;21.50;42.40
30148;DHT22;16960;49.404;8.248;2022-11-20T10:54:50;21.50;42.40
30148;DHT22;16960;49.404;8.248;2022-11-20T10:57:29;21.50;42.60
30148;DHT22;16960;49.404;8.248;2022-11-20T11:00:02;21.50;43.00
30148;DHT22;16960;49.404;8.248;2022-11-20T11:02:38;21.50;43.20
30148;DHT22;16960;49.404;8.248;2022-11-20T11:05:18;21.50;43.40
30148;DHT22;16960;49.404;8.248;2022-11-20T11:07:50;21.50;43.50
30148;DHT22;16960;49.404;8.248;2022-11-20T11:10:18;21.60;43.60
30148;DHT22;16960;49.404;8.248;2022-11-20T11:12:48;21.60;43.40
30148;DHT22;16960;49.404;8.248;2022-11-20T11:15:25;21.60;43.30
30148;DHT22;16960;49.404;8.248;2022-11-20T11:17:54;21.60;43.10
30148;DHT22;16960;49.404;8.248;2022-11-20T11:20:22;21.70;43.00
30148;DHT22;16960;49.404;8.248;2022-11-20T11:22:51;21.70;42.70
30148;DHT22;16960;49.404;8.248;2022-11-20T11:25:26;21.80;42.50
30148;DHT22;16960;49.404;8.248;2022-11-20T11:27:55;21.80;43.10
30148;DHT22;16960;49.404;8.248;2022-11-20T11:30:23;21.80;42.10
30148;DHT22;16960;49.404;8.248;2022-11-20T11:32:50;21.90;42.10
30148;DHT22;16960;49.404;8.248;2022-11-20T11:35:27;21.90;41.80
30148;DHT22;16960;49.404;8.248;2022-11-20T11:38:03;21.80;41.70
30148;DHT22;16960;49.404;8.248;2022-11-20T11:40:32;21.90;41.60
30148;DHT22;16960;49.404;8.248;2022-11-20T11:43:01;21.90;41.50
30148;DHT22;16960;49.404;8.248;2022-11-20T11:45:28;21.90;41.50
30148;DHT22;16960;49.404;8.248;2022-11-20T11:47:56;21.90;41.40
30148;DHT22;16960;49.404;8.248;2022-11-20T11:50:26;21.90;41.50
30148;DHT22;16960;49.404;8.248;2022-11-20T11:52:59;21.90;41.50
30148;DHT22;16960;49.404;8.248;2022-11-20T11:55:33;21.80;41.40
30148;DHT22;16960;49.404;8.248;2022-11-20T11:58:16;21.80;41.50
30148;DHT22;16960;49.404;8.248;2022-11-20T12:00:57;21.80;41.60
30148;DHT22;16960;49.404;8.248;2022-11-20T12:03:28;21.80;41.40
30148;DHT22;16960;49.404;8.248;2022-11-20T12:06:03;21.80;41.40
30148;DHT22;16960;49.404;8.248;2022-11-20T12:08:39;21.80;41.40
30148;DHT22;16960;49.404;8.248;2022-11-20T12:11:13;21.80;41.40
30148;DHT22;16960;49.404;8.248;2022-11-20T12:13:44;21.80;41.50
30148;DHT22;16960;49.404;8.248;2022-11-20T12:16:14;21.80;41.60
30148;DHT22;16960;49.404;8.248;2022-11-20T12:18:42;21.80;41.60
30148;DHT22;16960;49.404;8.248;2022-11-20T12:21:19;21.80;41.70
30148;DHT22;16960;49.404;8.248;2022-11-20T12:23:56;21.80;41.70
30148;DHT22;16960;49.404;8.248;2022-11-20T12:26:39;21.70;41.90
30148;DHT22;16960;49.404;8.248;2022-11-20T12:29:15;21.70;42.10
30148;DHT22;16960;49.404;8.248;2022-11-20T12:32:04;21.70;42.40
30148;DHT22;16960;49.404;8.248;2022-11-20T12:34:45;21.60;42.60
30148;DHT22;16960;49.404;8.248;2022-11-20T12:37:26;21.60;42.90
30148;DHT22;16960;49.404;8.248;2022-11-20T12:40:00;21.60;42.60
30148;DHT22;16960;49.404;8.248;2022-11-20T12:42:45;21.60;42.60
30148;DHT22;16960;49.404;8.248;2022-11-20T12:45:46;21.70;42.50
30148;DHT22;16960;49.404;8.248;2022-11-20T12:48:34;21.60;42.40
30148;DHT22;16960;49.404;8.248;2022-11-20T12:51:21;21.60;42.40
30148;DHT22;16960;49.404;8.248;2022-11-20T12:54:01;21.60;42.60
30148;DHT22;16960;49.404;8.248;2022-11-20T12:56:37;21.60;42.50
30148;DHT22;16960;49.404;8.248;2022-11-20T12:59:28;21.60;42.80
30148;DHT22;16960;49.404;8.248;2022-11-20T13:02:09;21.60;42.80
30148;DHT22;16960;49.404;8.248;2022-11-20T13:04:53;21.60;42.50
30148;DHT22;16960;49.404;8.248;2022-11-20T13:07:24;21.60;42.70
30148;DHT22;16960;49.404;8.248;2022-11-20T13:09:55;21.50;42.80
30148;DHT22;16960;49.404;8.248;2022-11-20T13:12:25;21.60;43.00
30148;DHT22;16960;49.404;8.248;2022-11-20T13:15:02;21.70;43.10
30148;DHT22;16960;49.404;8.248;2022-11-20T13:17:36;21.60;43.00
30148;DHT22;16960;49.404;8.248;2022-11-20T13:20:06;21.60;43.00
30148;DHT22;16960;49.404;8.248;2022-11-20T13:22:44;21.60;43.00
30148;DHT22;16960;49.404;8.248;2022-11-20T13:25:24;21.70;42.90
30148;DHT22;16960;49.404;8.248;2022-11-20T13:27:51;21.60;42.70
30148;DHT22;16960;49.404;8.248;2022-11-20T13:30:20;21.70;42.50
30148;DHT22;16960;49.404;8.248;2022-11-20T13:32:55;21.70;42.30
30148;DHT22;16960;49.404;8.248;2022-11-20T13:35:28;21.70;42.20
30148;DHT22;16960;49.404;8.248;2022-11-20T13:38:08;21.70;41.90
30148;DHT22;16960;49.404;8.248;2022-11-20T13:40:38;21.70;41.90
30148;DHT22;16960;49.404;8.248;2022-11-20T13:43:22;21.70;42.20
30148;DHT22;16960;49.404;8.248;2022-11-20T13:46:00;21.70;41.90
30148;DHT22;16960;49.404;8.248;2022-11-20T13:48:31;21.70;42.10
30148;DHT22;16960;49.404;8.248;2022-11-20T13:51:09;21.70;42.40
30148;DHT22;16960;49.404;8.248;2022-11-20T13:56:54;21.70;41.70
30148;DHT22;16960;49.404;8.248;2022-11-20T13:59:36;21.70;41.60
30148;DHT22;16960;49.404;8.248;2022-11-20T14:02:10;21.80;41.60
30148;DHT22;16960;49.404;8.248;2022-11-20T14:04:43;21.80;41.10
30148;DHT22;16960;49.404;8.248;2022-11-20T14:07:12;21.70;41.10
30148;DHT22;16960;49.404;8.248;2022-11-20T14:09:49;21.70;40.80
30148;DHT22;16960;49.404;8.248;2022-11-20T14:12:19;21.70;40.80
30148;DHT22;16960;49.404;8.248;2022-11-20T14:14:48;21.70;41.60
30148;DHT22;16960;49.404;8.248;2022-11-20T14:17:19;21.70;41.50
30148;DHT22;16960;49.404;8.248;2022-11-20T14:19:48;21.70;41.20
30148;DHT22;16960;49.404;8.248;2022-11-20T14:22:20;21.70;41.30
30148;DHT22;16960;49.404;8.248;2022-11-20T14:24:48;21.70;41.50
30148;DHT22;16960;49.404;8.248;2022-11-20T14:27:18;21.70;41.60
30148;DHT22;16960;49.404;8.248;2022-11-20T14:29:48;21.60;41.50
30148;DHT22;16960;49.404;8.248;2022-11-20T14:32:17;21.60;41.50
30148;DHT22;16960;49.404;8.248;2022-11-20T14:34:48;21.50;41.50
30148;DHT22;16960;49.404;8.248;2022-11-20T14:37:20;21.60;41.60
30148;DHT22;16960;49.404;8.248;2022-11-20T14:39:50;21.50;41.70
30148;DHT22;16960;49.404;8.248;2022-11-20T14:42:22;21.50;41.70
30148;DHT22;16960;49.404;8.248;2022-11-20T14:44:50;21.50;41.80
30148;DHT22;16960;49.404;8.248;2022-11-20T14:47:19;21.50;42.10
30148;DHT22;16960;49.404;8.248;2022-11-20T14:49:47;21.50;42.40
30148;DHT22;16960;49.404;8.248;2022-11-20T14:52:16;21.50;42.60
30148;DHT22;16960;49.404;8.248;2022-11-20T14:54:44;21.50;42.60
30148;DHT22;16960;49.404;8.248;2022-11-20T14:57:25;21.50;42.50
30148;DHT22;16960;49.404;8.248;2022-11-20T15:00:05;21.50;42.50
30148;DHT22;16960;49.404;8.248;2022-11-20T15:02:32;21.50;42.70
30148;DHT22;16960;49.404;8.248;2022-11-20T15:05:01;21.50;42.80
30148;DHT22;16960;49.404;8.248;2022-11-20T15:07:30;21.50;42.80
30148;DHT22;16960;49.404;8.248;2022-11-20T15:10:05;21.50;42.90
30148;DHT22;16960;49.404;8.248;2022-11-20T15:12:35;21.50;42.90
30148;DHT22;16960;49.404;8.248;2022-11-20T15:15:05;21.50;43.00
30148;DHT22;16960;49.404;8.248;2022-11-20T15:17:34;21.60;43.00
30148;DHT22;16960;49.404;8.248;2022-11-20T15:20:11;21.60;43.00
30148;DHT22;16960;49.404;8.248;2022-11-20T15:22:40;21.60;43.00
30148;DHT22;16960;49.404;8.248;2022-11-20T15:25:12;21.60;43.00
30148;DHT22;16960;49.404;8.248;2022-11-20T15:27:41;21.60;43.10
30148;DHT22;16960;49.404;8.248;2022-11-20T15:30:16;21.70;44.00
30148;DHT22;16960;49.404;8.248;2022-11-20T15:32:44;21.70;43.20
30148;DHT22;16960;49.404;8.248;2022-11-20T15:35:11;21.70;43.20
30148;DHT22;16960;49.404;8.248;2022-11-20T15:37:39;21.70;43.10
30148;DHT22;16960;49.404;8.248;2022-11-20T15:40:07;21.70;43.10
30148;DHT22;16960;49.404;8.248;2022-11-20T15:42:35;21.70;43.20
30148;DHT22;16960;49.404;8.248;2022-11-20T15:45:04;21.70;43.10
30148;DHT22;16960;49.404;8.248;2022-11-20T15:47:33;21.70;43.20
30148;DHT22;16960;49.404;8.248;2022-11-20T15:50:00;21.70;43.10
30148;DHT22;16960;49.404;8.248;2022-11-20T15:52:27;21.70;43.10